Time;durP1;ratioP1;P1;durP2;ratioP2;P2;SDS_P1;SDS_P2;PMS_P1;PMS_P2;Temp;Humidity;BMP_temperature;BMP_pressure;BME280_temperature;BME280_humidity;BME280_pressure;Samples;Min_cycle;Max_cycle;Signal;HPM_P1;HPM_P2
2023/01/08 00:01:26;;;;;;;;;;;;;;;5.87;100.00;98855.47;5032306;28;20019;-88
2023/01/08 00:03:52;;;;;;;;;;;;;;;5.73;100.00;98850.72;5020816;28;19925;-93
2023/01/08 00:06:18;;;;;;;;;;;;;;;5.57;100.00;98853.06;5038581;28;20385;-88
2023/01/08 00:08:44;;;;;;;;;;;;;;;5.56;100.00;98853.97;5020294;28;19921;-88
2023/01/08 00:11:18;;;;;;;;;;;;;;;5.38;100.00;98854.66;5042980;28;19917;-94
2023/01/08 00:13:43;;;;;;;;;;;;;;;5.36;100.00;98846.84;5023856;28;19921;-87
2023/01/08 00:16:11;;;;;;;;;;;;;;;5.40;100.00;98850.19;4999984;28;20388;-92
2023/01/08 00:18:37;;;;;;;;;;;;;;;5.39;100.00;98851.97;5017433;28;19917;-88
2023/01/08 00:21:02;;;;;;;;;;;;;;;5.18;100.00;98847.50;5014865;28;20359;-87
2023/01/08 00:23:28;;;;;;;;;;;;;;;5.17;100.00;98849.28;5013822;28;19921;-89
2023/01/08 00:25:53;;;;;;;;;;;;;;;5.21;100.00;98842.97;4998300;28;19928;-88
2023/01/08 00:28:21;;;;;;;;;;;;;;;5.15;100.00;98840.56;5015244;28;19925;-92
2023/01/08 00:30:47;;;;;;;;;;;;;;;5.17;100.00;98838.75;5014035;28;19917;-87
2023/01/08 00:33:12;;;;;;;;;;;;;;;5.17;100.00;98838.75;4998312;28;19982;-89
2023/01/08 00:35:38;;;;;;;;;;;;;;;5.19;100.00;98839.56;5014915;28;19933;-93
2023/01/08 00:38:04;;;;;;;;;;;;;;;5.06;100.00;98839.13;5020806;28;20324;-88
2023/01/08 00:40:29;;;;;;;;;;;;;;;5.04;100.00;98840.09;5017836;28;19952;-90
2023/01/08 00:42:54;;;;;;;;;;;;;;;5.06;100.00;98833.03;5016344;28;19967;-89
2023/01/08 00:46:22;;;;;;;;;;;;;;;5.02;100.00;98834.91;5019207;28;19925;-94
2023/01/08 00:48:37;;;;;;;;;;;;;;;4.94;100.00;98828.22;5014329;28;19921;-89
2023/01/08 00:51:03;;;;;;;;;;;;;;;4.89;100.00;98831.00;5036569;28;19917;-87
2023/01/08 00:53:28;;;;;;;;;;;;;;;4.90;100.00;98824.84;5031814;28;19917;-90
2023/01/08 00:56:01;;;;;;;;;;;;;;;5.00;100.00;98822.75;5016299;28;19953;-94
2023/01/08 00:58:26;;;;;;;;;;;;;;;5.12;100.00;98814.41;5016535;28;19917;-86
2023/01/08 01:00:52;;;;;;;;;;;;;;;5.06;100.00;98815.50;5016171;28;20315;-88
2023/01/08 01:03:17;;;;;;;;;;;;;;;5.15;100.00;98814.31;5015926;28;19917;-92
2023/01/08 01:05:42;;;;;;;;;;;;;;;5.17;100.00;98807.25;5016416;28;19918;-89
2023/01/08 01:08:07;;;;;;;;;;;;;;;5.16;100.00;98799.44;5014711;28;19917;-87
2023/01/08 01:10:41;;;;;;;;;;;;;;;5.29;100.00;98800.69;5015600;28;19917;-94
2023/01/08 01:13:06;;;;;;;;;;;;;;;5.27;100.00;98800.72;5016849;28;19917;-91
2023/01/08 01:15:31;;;;;;;;;;;;;;;5.24;100.00;98797.38;5018025;28;19952;-90
2023/01/08 01:17:57;;;;;;;;;;;;;;;5.13;100.00;98792.50;5016094;28;19918;-90
2023/01/08 01:20:22;;;;;;;;;;;;;;;5.15;100.00;98785.41;5015055;28;19925;-89
2023/01/08 01:22:48;;;;;;;;;;;;;;;5.20;100.00;98788.75;5015298;28;19956;-89
2023/01/08 01:25:13;;;;;;;;;;;;;;;5.23;100.00;98783.38;5014774;28;19925;-89
2023/01/08 01:27:38;;;;;;;;;;;;;;;5.23;100.00;98780.75;5014427;28;19987;-88
2023/01/08 01:30:04;;;;;;;;;;;;;;;5.23;100.00;98778.13;5014147;28;19922;-87
2023/01/08 01:32:30;;;;;;;;;;;;;;;5.30;100.00;98777.88;5015109;28;19928;-88
2023/01/08 01:34:55;;;;;;;;;;;;;;;5.27;100.00;98774.47;5014226;28;19918;-86
2023/01/08 01:37:23;;;;;;;;;;;;;;;5.25;100.00;98773.69;5013405;28;19918;-89
2023/01/08 01:39:48;;;;;;;;;;;;;;;5.27;100.00;98771.84;5034623;28;19927;-91
2023/01/08 01:42:38;;;;;;;;;;;;;;;5.24;100.00;98777.19;5035431;28;19929;-86
2023/01/08 01:45:00;;;;;;;;;;;;;;;5.29;100.00;98777.03;5040647;28;19928;-89
2023/01/08 10:07:11;;;;;;;;;;;;;;;5.81;100.00;98624.34;5468956;23;19968;-88
2023/01/08 10:09:37;;;;;;;;;;;;;;;5.81;100.00;98619.94;5034213;28;19921;-88
2023/01/08 10:12:03;;;;;;;;;;;;;;;5.84;100.00;98613.72;5031888;28;19921;-88
2023/01/08 10:14:31;;;;;;;;;;;;;;;5.84;100.00;98611.06;5034437;28;19917;-86
2023/01/08 10:16:59;;;;;;;;;;;;;;;5.86;100.00;98611.84;5017366;28;19921;-94
2023/01/08 10:19:24;;;;;;;;;;;;;;;5.89;100.00;98609.09;5056806;28;19924;-96
2023/01/08 10:21:50;;;;;;;;;;;;;;;5.89;100.00;98606.47;5055888;28;19921;-93
2023/01/08 10:24:15;;;;;;;;;;;;;;;5.92;100.00;98603.72;5056397;28;19941;-91
2023/01/08 10:26:41;;;;;;;;;;;;;;;5.93;100.00;98592.25;5026711;28;19921;-90
2023/01/08 10:29:12;;;;;;;;;;;;;;;5.92;100.00;98595.81;5039570;28;19924;-91
2023/01/08 10:31:51;;;;;;;;;;;;;;;5.96;100.00;98586.91;5018625;28;20288;-90
2023/01/08 10:34:22;;;;;;;;;;;;;;;6.00;100.00;98579.75;5018506;28;19927;-93
2023/01/08 10:36:47;;;;;;;;;;;;;;;6.02;100.00;98579.69;5035304;28;19925;-92
2023/01/08 10:39:20;;;;;;;;;;;;;;;5.98;100.00;98563.16;5050175;28;19921;-91
2023/01/08 10:41:47;;;;;;;;;;;;;;;6.03;100.00;98563.84;5055696;28;19921;-95
2023/01/08 10:44:16;;;;;;;;;;;;;;;6.06;100.00;98565.47;5055359;28;19917;-90
2023/01/08 10:46:43;;;;;;;;;;;;;;;6.07;100.00;98560.13;5054210;28;19916;-88
2023/01/08 10:49:24;;;;;;;;;;;;;;;6.09;100.00;98552.19;5037439;28;19964;-93
2023/01/08 10:51:50;;;;;;;;;;;;;;;6.11;100.00;98545.94;5035719;28;19917;-94
2023/01/08 10:54:29;;;;;;;;;;;;;;;6.16;100.00;98551.00;5035963;28;20418;-90
2023/01/08 10:56:54;;;;;;;;;;;;;;;6.15;100.00;98536.13;5054227;28;19971;-90
2023/01/08 10:59:21;;;;;;;;;;;;;;;6.16;100.00;98530.81;5054415;28;20332;-88
2023/01/08 11:01:47;;;;;;;;;;;;;;;6.17;100.00;98536.91;5053713;28;20303;-91
2023/01/08 11:04:32;;;;;;;;;;;;;;;6.20;100.00;98535.94;5053635;28;20430;-90
2023/01/08 11:07:01;;;;;;;;;;;;;;;6.22;100.00;98528.81;5035330;28;20012;-92
2023/01/08 11:09:31;;;;;;;;;;;;;;;6.26;100.00;98517.25;5034499;28;20272;-88
2023/01/08 11:11:57;;;;;;;;;;;;;;;6.25;100.00;98513.75;5036513;28;19972;-93
2023/01/08 11:14:33;;;;;;;;;;;;;;;6.25;100.00;98519.00;5035968;28;20340;-88
2023/01/08 11:16:58;;;;;;;;;;;;;;;6.30;100.00;98522.31;5035714;28;20394;-91
2023/01/08 11:19:31;;;;;;;;;;;;;;;6.31;100.00;98518.72;5035749;28;19917;-88
2023/01/08 11:21:59;;;;;;;;;;;;;;;6.30;100.00;98519.69;5052072;28;19917;-88
2023/01/08 11:24:31;;;;;;;;;;;;;;;6.31;100.00;98515.25;5035677;28;19917;-88
2023/01/08 11:27:15;;;;;;;;;;;;;;;6.33;100.00;98522.16;5053091;28;19923;-92
2023/01/08 11:29:59;;;;;;;;;;;;;;;6.35;100.00;98515.06;5053247;28;19917;-90
2023/01/08 11:32:40;;;;;;;;;;;;;;;6.34;100.00;98521.22;5053055;28;19921;-90
2023/01/08 11:35:25;;;;;;;;;;;;;;;6.37;100.00;98509.72;5053885;28;19917;-89
2023/01/08 11:37:51;;;;;;;;;;;;;;;6.38;100.00;98515.81;5056599;28;19917;-90
2023/01/08 11:40:37;;;;;;;;;;;;;;;6.40;100.00;98506.06;5057242;28;19924;-89
2023/01/08 11:43:21;;;;;;;;;;;;;;;6.39;100.00;98499.13;5029227;28;19920;-89
2023/01/08 11:45:58;;;;;;;;;;;;;;;6.43;100.00;98492.78;5057646;28;19971;-89
2023/01/08 11:48:42;;;;;;;;;;;;;;;6.42;100.00;98483.19;5057788;28;20407;-94
2023/01/08 11:51:33;;;;;;;;;;;;;;;6.44;100.00;98486.59;5056436;28;20369;-94
2023/01/08 11:54:21;;;;;;;;;;;;;;;6.51;100.00;98474.84;5069173;28;19916;-90
2023/01/08 11:57:01;;;;;;;;;;;;;;;6.55;100.00;98469.38;5059704;28;19925;-94
2023/01/08 11:59:32;;;;;;;;;;;;;;;6.57;100.00;98463.19;5053572;28;19924;-90
2023/01/08 12:02:08;;;;;;;;;;;;;;;6.52;100.00;98460.78;5038178;28;20012;-96
2023/01/08 12:04:52;;;;;;;;;;;;;;;6.50;100.00;98455.59;5039040;28;19917;-91
2023/01/08 12:07:23;;;;;;;;;;;;;;;6.51;100.00;98451.16;5057679;28;19928;-89
2023/01/08 12:09:58;;;;;;;;;;;;;;;6.55;100.00;98447.47;5020949;28;19922;-96
2023/01/08 12:12:33;;;;;;;;;;;;;;;6.53;100.00;98434.38;4998028;28;19921;-90
2023/01/08 13:40:26;;;;;;;;;;;;;;;6.94;100.00;98346.41;5049632;23;20379;-87
2023/01/08 13:42:52;;;;;;;;;;;;;;;6.95;100.00;98336.72;5055924;28;20387;-88
2023/01/08 13:45:17;;;;;;;;;;;;;;;6.94;100.00;98343.78;5055925;28;20011;-88
2023/01/08 13:47:45;;;;;;;;;;;;;;;6.97;100.00;98338.31;5037280;28;20334;-89
2023/01/08 13:50:16;;;;;;;;;;;;;;;6.97;100.00;98333.06;5037530;28;20358;-89
2023/01/08 13:52:43;;;;;;;;;;;;;;;6.95;100.00;98337.56;5036040;28;19987;-89
2023/01/08 13:55:27;;;;;;;;;;;;;;;6.99;100.00;98333.84;5054743;28;19924;-91
2023/01/08 13:57:56;;;;;;;;;;;;;;;7.00;100.00;98332.06;5036476;28;20279;-89
2023/01/08 14:00:41;;;;;;;;;;;;;;;7.02;100.00;98325.81;5055071;28;19931;-88
2023/01/08 14:03:28;;;;;;;;;;;;;;;7.02;100.00;98317.03;5035744;28;19916;-92
2023/01/08 14:06:09;;;;;;;;;;;;;;;7.03;100.00;98318.75;5038610;28;19921;-92
2023/01/08 14:08:36;;;;;;;;;;;;;;;7.04;100.00;98309.91;5037595;28;19919;-93
2023/01/08 14:11:02;;;;;;;;;;;;;;;7.06;100.00;98311.53;5040854;28;19924;-91
2023/01/08 14:13:29;;;;;;;;;;;;;;;7.07;100.00;98301.88;5040373;28;19924;-92
2023/01/08 14:16:01;;;;;;;;;;;;;;;7.07;100.00;98297.44;5039665;28;19921;-89
2023/01/08 14:18:27;;;;;;;;;;;;;;;7.09;100.00;98295.56;5055961;28;19978;-93
2023/01/08 14:20:55;;;;;;;;;;;;;;;7.11;100.00;98305.19;5040275;28;19916;-91
2023/01/08 14:23:29;;;;;;;;;;;;;;;7.12;100.00;98301.63;5055515;28;20011;-91
2023/01/08 14:25:58;;;;;;;;;;;;;;;7.13;100.00;98300.66;5055722;28;20398;-89
2023/01/08 14:28:23;;;;;;;;;;;;;;;7.13;100.00;98296.25;5054423;28;19924;-92
2023/01/08 14:30:55;;;;;;;;;;;;;;;7.16;100.00;98293.44;5055202;28;19917;-89
2023/01/08 14:33:28;;;;;;;;;;;;;;;7.17;100.00;98294.31;5055713;28;20011;-91
2023/01/08 14:35:54;;;;;;;;;;;;;;;7.20;100.00;98283.63;5036305;28;19923;-91
2023/01/08 14:38:19;;;;;;;;;;;;;;;7.20;100.00;98283.63;5054678;28;19917;-90
2023/01/08 14:40:56;;;;;;;;;;;;;;;7.20;100.00;98292.38;5053684;28;20458;-91
2023/01/08 14:43:22;;;;;;;;;;;;;;;7.21;100.00;98286.19;5056408;28;20403;-89
2023/01/08 14:45:49;;;;;;;;;;;;;;;7.23;100.00;98286.94;5054888;28;19917;-88
2023/01/08 14:48:23;;;;;;;;;;;;;;;7.25;100.00;98279.78;5055157;28;19923;-88
2023/01/08 14:51:08;;;;;;;;;;;;;;;7.26;100.00;98284.16;5036594;28;20011;-88
2023/01/08 14:53:41;;;;;;;;;;;;;;;7.27;100.00;98277.09;5052523;28;19935;-90
2023/01/08 14:56:11;;;;;;;;;;;;;;;7.28;100.00;98278.78;5054579;28;19916;-88
2023/01/08 14:58:37;;;;;;;;;;;;;;;7.30;100.00;98270.81;5053667;28;19924;-88
2023/01/08 15:01:15;;;;;;;;;;;;;;;7.30;100.00;98266.38;5035574;28;20265;-90
2023/01/08 15:04:13;;;;;;;;;;;;;;;;;;;;;
2023/01/08 15:06:39;;;;;;;;;;;;;;;7.34;100.00;98256.53;5054648;28;19917;-90
2023/01/08 15:09:18;;;;;;;;;;;;;;;7.34;100.00;98245.97;5052114;28;20011;-89
2023/01/08 15:12:00;;;;;;;;;;;;;;;7.36;100.00;98238.88;5053447;28;19921;-90
2023/01/08 15:14:26;;;;;;;;;;;;;;;7.36;100.00;98234.44;5036114;28;19917;-91
2023/01/08 15:17:13;;;;;;;;;;;;;;;7.37;100.00;98241.41;5035657;28;20330;-94
2023/01/08 15:19:48;;;;;;;;;;;;;;;7.39;100.00;98233.44;5035750;28;19947;-93
2023/01/08 15:22:17;;;;;;;;;;;;;;;7.40;100.00;98235.97;5053672;28;19916;-92
2023/01/08 15:24:52;;;;;;;;;;;;;;;7.39;100.00;98242.19;5034298;28;19916;-91
2023/01/08 15:27:18;;;;;;;;;;;;;;;7.43;100.00;98237.59;5053715;28;19913;-94
2023/01/08 15:29:48;;;;;;;;;;;;;;;7.43;100.00;98240.22;5035510;28;20015;-90
2023/01/08 15:32:13;;;;;;;;;;;;;;;7.46;100.00;98245.31;5053611;28;19964;-90
2023/01/08 15:34:39;;;;;;;;;;;;;;;7.46;100.00;98243.53;5053651;28;19924;-87
2023/01/08 15:37:06;;;;;;;;;;;;;;;7.48;100.00;98232.06;5053184;28;19920;-89
2023/01/08 15:39:32;;;;;;;;;;;;;;;7.47;100.00;98231.22;5051977;28;19925;-90
2023/01/08 15:44:56;;;;;;;;;;;;;;;7.51;100.00;98218.72;5053920;28;20287;-90
2023/01/08 15:47:24;;;;;;;;;;;;;;;7.52;100.00;98223.91;5035562;28;19917;-89
2023/01/08 15:49:49;;;;;;;;;;;;;;;7.52;100.00;98218.63;5053093;28;19917;-89
2023/01/08 15:52:22;;;;;;;;;;;;;;;7.55;100.00;98225.53;5035174;28;19920;-91
2023/01/08 15:54:50;;;;;;;;;;;;;;;7.55;100.00;98220.25;5052066;28;19916;-91
2023/01/08 15:57:19;;;;;;;;;;;;;;;7.53;100.00;98219.47;5053304;28;19923;-89
2023/01/08 15:59:47;;;;;;;;;;;;;;;7.56;100.00;98208.75;5053498;28;20307;-90
2023/01/08 16:02:15;;;;;;;;;;;;;;;7.56;100.00;98208.75;5053318;28;19917;-89
2023/01/08 16:04:40;;;;;;;;;;;;;;;7.58;100.00;98201.66;5035310;28;19923;-92
2023/01/08 16:07:13;;;;;;;;;;;;;;;7.58;100.00;98207.75;5035704;28;19956;-91
2023/01/08 16:09:38;;;;;;;;;;;;;;;7.59;100.00;98205.97;5052732;28;19916;-89
2023/01/08 16:12:04;;;;;;;;;;;;;;;7.60;100.00;98203.25;5036707;28;20003;-91
2023/01/08 16:14:33;;;;;;;;;;;;;;;7.62;100.00;98208.44;5059606;28;19918;-95
2023/01/08 16:17:00;;;;;;;;;;;;;;;7.62;100.00;98206.63;5059869;28;19917;-91
2023/01/08 16:19:26;;;;;;;;;;;;;;;7.65;100.00;98208.25;5036400;28;20264;-92
2023/01/08 16:21:51;;;;;;;;;;;;;;;7.64;100.00;98204.78;5037231;28;20380;-89
2023/01/08 16:24:23;;;;;;;;;;;;;;;7.67;100.00;98202.91;5038160;28;19946;-94
2023/01/08 16:26:48;;;;;;;;;;;;;;;7.66;100.00;98195.91;5057095;28;19917;-91
2023/01/08 16:29:19;;;;;;;;;;;;;;;7.68;100.00;98181.72;5039256;28;19932;-91
2023/01/08 16:31:47;;;;;;;;;;;;;;;7.68;100.00;98176.44;5038742;28;20438;-92
2023/01/08 16:34:15;;;;;;;;;;;;;;;7.69;100.00;98177.28;5056870;28;19924;-90
2023/01/08 16:36:40;;;;;;;;;;;;;;;7.70;100.00;98181.63;5040510;28;20015;-95
2023/01/08 16:39:08;;;;;;;;;;;;;;;7.70;100.00;98181.63;5038150;28;20025;-91
2023/01/08 16:41:40;;;;;;;;;;;;;;;7.73;100.00;98163.84;5039477;28;20277;-90
2023/01/08 16:44:08;;;;;;;;;;;;;;;7.73;100.00;98163.00;5056825;28;19932;-91
2023/01/08 16:46:33;;;;;;;;;;;;;;;7.75;100.00;98156.69;5038880;28;19921;-89
2023/01/08 16:48:59;;;;;;;;;;;;;;;7.76;100.00;98158.41;5056740;28;19974;-89
2023/01/08 16:51:26;;;;;;;;;;;;;;;7.76;100.00;98157.56;5055833;28;19924;-90
2023/01/08 16:53:52;;;;;;;;;;;;;;;7.77;100.00;98157.47;5036866;28;20261;-88
2023/01/08 16:56:17;;;;;;;;;;;;;;;7.77;100.00;98154.84;5038119;28;19928;-88
2023/01/08 16:58:42;;;;;;;;;;;;;;;7.78;100.00;98156.53;5037942;28;19967;-90
2023/01/08 17:01:08;;;;;;;;;;;;;;;7.78;100.00;98145.13;5037861;28;20279;-88
2023/01/08 17:03:33;;;;;;;;;;;;;;;7.79;100.00;98137.13;5055674;28;20383;-86
2023/01/08 17:06:03;;;;;;;;;;;;;;;7.79;100.00;98131.84;5055530;28;19921;-89
2023/01/08 17:08:28;;;;;;;;;;;;;;;7.80;100.00;98123.03;5054437;28;19958;-86
2023/01/08 17:10:53;;;;;;;;;;;;;;;7.81;100.00;98108.88;5055842;28;19925;-85
2023/01/08 17:13:18;;;;;;;;;;;;;;;7.84;100.00;98107.03;5055391;28;19928;-88
2023/01/08 17:15:45;;;;;;;;;;;;;;;7.84;100.00;98112.31;5055683;28;19987;-88
2023/01/08 17:18:10;;;;;;;;;;;;;;;7.85;100.00;98095.53;5055378;28;19917;-86
2023/01/08 17:20:35;;;;;;;;;;;;;;;7.86;100.00;98089.31;5055395;28;19912;-87
2023/01/08 17:23:09;;;;;;;;;;;;;;;7.85;100.00;98087.59;5054222;28;19986;-89
2023/01/08 17:25:38;;;;;;;;;;;;;;;7.88;100.00;98098.84;5037695;28;19951;-86
2023/01/08 17:28:06;;;;;;;;;;;;;;;7.87;100.00;98096.31;5037491;28;19935;-86
2023/01/08 17:30:32;;;;;;;;;;;;;;;7.88;100.00;98092.72;5037327;28;20065;-85
2023/01/08 17:32:57;;;;;;;;;;;;;;;7.89;100.00;98089.13;5037482;28;19970;-84
2023/01/08 17:35:22;;;;;;;;;;;;;;;7.89;100.00;98087.34;5037565;28;20353;-89
2023/01/08 17:37:47;;;;;;;;;;;;;;;7.90;100.00;98075.03;5033852;28;20481;-86
2023/01/08 17:40:13;;;;;;;;;;;;;;;7.90;100.00;98069.75;5013945;28;19930;-85
2023/01/08 17:42:38;;;;;;;;;;;;;;;7.90;100.00;98064.47;5013719;28;19918;-87
2023/01/08 17:45:05;;;;;;;;;;;;;;;7.91;100.00;98063.50;5014411;28;20284;-85
2023/01/08 17:47:31;;;;;;;;;;;;;;;7.92;100.00;98070.50;5033305;28;19921;-87
2023/01/08 17:49:56;;;;;;;;;;;;;;;7.92;100.00;98066.06;5020697;28;19918;-87
2023/01/08 17:52:25;;;;;;;;;;;;;;;7.93;100.00;98061.63;5013247;28;19957;-87
2023/01/08 17:54:53;;;;;;;;;;;;;;;7.94;100.00;98066.81;5012689;28;19921;-84
2023/01/08 17:57:19;;;;;;;;;;;;;;;7.93;100.00;98064.25;5012575;28;20395;-86
2023/01/08 17:59:49;;;;;;;;;;;;;;;7.95;100.00;98067.69;5013778;28;19925;-87
2023/01/08 18:02:14;;;;;;;;;;;;;;;7.94;100.00;98060.69;5021268;28;19928;-86
2023/01/08 18:04:40;;;;;;;;;;;;;;;7.95;100.00;98057.97;5021248;28;19918;-87
2023/01/08 18:07:22;;;;;;;;;;;;;;;7.95;100.00;98051.88;5013822;28;19922;-91
2023/01/08 18:09:57;;;;;;;;;;;;;;;7.97;100.00;98049.97;5030995;28;20364;-90
2023/01/08 18:12:39;;;;;;;;;;;;;;;7.97;100.00;98053.44;5024471;28;19968;-92
2023/01/08 18:15:04;;;;;;;;;;;;;;;7.97;100.00;98056.09;5016340;28;19926;-91
2023/01/08 18:17:31;;;;;;;;;;;;;;;7.97;100.00;98039.41;5023021;28;19944;-89
2023/01/08 18:19:56;;;;;;;;;;;;;;;7.98;100.00;98030.56;5033882;28;19921;-86
2023/01/08 18:22:21;;;;;;;;;;;;;;;7.98;100.00;98022.66;5017888;28;20067;-88
2023/01/08 18:24:47;;;;;;;;;;;;;;;8.01;100.00;98019.84;5011414;28;19918;-86
2023/01/08 18:27:12;;;;;;;;;;;;;;;8.02;100.00;98028.59;5013615;28;19925;-86
2023/01/08 18:29:37;;;;;;;;;;;;;;;8.01;100.00;98030.41;5017195;28;19925;-89
2023/01/08 18:32:03;;;;;;;;;;;;;;;8.00;100.00;98026.88;5020961;28;19922;-89
2023/01/08 18:34:29;;;;;;;;;;;;;;;8.01;100.00;98022.47;5020360;28;19921;-91
2023/01/08 18:36:57;;;;;;;;;;;;;;;8.02;100.00;98018.88;5033476;28;19921;-94
2023/01/08 18:39:22;;;;;;;;;;;;;;;8.03;100.00;98011.84;5024106;28;19928;-89
2023/01/08 18:44:31;;;;;;;;;;;;;;;8.05;100.00;98005.50;5014547;28;19951;-87
2023/01/08 18:46:57;;;;;;;;;;;;;;;8.04;100.00;97993.28;5017069;28;19917;-86
2023/01/08 18:49:23;;;;;;;;;;;;;;;8.06;100.00;97994.03;5013402;28;19968;-89
2023/01/08 18:51:48;;;;;;;;;;;;;;;8.05;100.00;97999.41;5017341;28;19949;-90
2023/01/08 18:54:14;;;;;;;;;;;;;;;8.06;100.00;98001.06;5027872;28;19928;-90
2023/01/08 18:56:39;;;;;;;;;;;;;;;8.07;100.00;98003.63;5032732;28;20431;-88
2023/01/08 18:59:05;;;;;;;;;;;;;;;8.08;100.00;97993.94;5039519;28;20447;-88
2023/01/08 19:01:31;;;;;;;;;;;;;;;8.09;100.00;97987.69;5032184;28;19918;-93
2023/01/08 19:03:56;;;;;;;;;;;;;;;8.10;100.00;97979.69;5032051;28;20028;-93
2023/01/08 19:06:21;;;;;;;;;;;;;;;8.11;100.00;97978.75;5015916;28;20261;-86
2023/01/08 19:08:47;;;;;;;;;;;;;;;8.09;100.00;97978.03;5016212;28;19924;-92
2023/01/08 19:11:12;;;;;;;;;;;;;;;8.12;100.00;97975.19;5051355;28;19916;-93
2023/01/08 19:13:37;;;;;;;;;;;;;;;8.09;100.00;97970.09;5025985;28;20378;-92
2023/01/08 19:16:10;;;;;;;;;;;;;;;8.10;100.00;97974.41;5047320;28;19924;-91
2023/01/08 19:18:35;;;;;;;;;;;;;;;8.11;100.00;97973.50;5027150;28;19928;-94
2023/01/08 19:21:01;;;;;;;;;;;;;;;8.13;100.00;97971.59;5032235;28;19917;-89
2023/01/08 19:23:27;;;;;;;;;;;;;;;8.13;100.00;97963.69;5016559;28;19928;-92
2023/01/08 19:25:52;;;;;;;;;;;;;;;8.14;100.00;97956.63;5029948;28;19921;-92
2023/01/08 19:28:17;;;;;;;;;;;;;;;8.15;100.00;97953.91;5037851;28;19912;-89
2023/01/08 19:30:42;;;;;;;;;;;;;;;8.14;100.00;97956.63;5035237;28;19929;-95
2023/01/08 19:33:08;;;;;;;;;;;;;;;8.16;100.00;97950.31;5050331;28;20372;-89
2023/01/08 19:35:37;;;;;;;;;;;;;;;8.16;100.00;97950.31;5052157;28;19931;-91
2023/01/08 19:38:02;;;;;;;;;;;;;;;8.17;100.00;97944.09;5055375;28;19917;-95
2023/01/08 19:40:28;;;;;;;;;;;;;;;8.19;100.00;97944.84;5056518;28;19970;-93
2023/01/08 19:45:37;;;;;;;;;;;;;;;8.21;100.00;97931.53;5015738;28;19920;-89
2023/01/08 19:48:02;;;;;;;;;;;;;;;8.21;100.00;97922.78;5012551;28;19921;-85
2023/01/08 19:50:29;;;;;;;;;;;;;;;8.21;100.00;97920.16;5014244;28;20004;-92
2023/01/08 19:52:55;;;;;;;;;;;;;;;8.22;100.00;97919.19;5019273;28;20026;-94
2023/01/08 19:55:21;;;;;;;;;;;;;;;8.21;100.00;97913.06;5034444;28;19917;-91
2023/01/08 19:57:46;;;;;;;;;;;;;;;8.23;100.00;97915.63;5034632;28;20440;-91
2023/01/08 20:00:12;;;;;;;;;;;;;;;8.23;100.00;97912.97;5034477;28;19921;-93
2023/01/08 20:02:37;;;;;;;;;;;;;;;8.22;100.00;97904.22;5021857;28;19975;-93
2023/01/08 20:05:02;;;;;;;;;;;;;;;8.25;100.00;97897.91;5024044;28;19921;-89
2023/01/08 20:07:28;;;;;;;;;;;;;;;8.53;100.00;97894.38;5032311;28;19967;-89
2023/01/08 20:09:53;;;;;;;;;;;;;;;8.43;100.00;97888.84;5028920;28;19932;-88
2023/01/08 20:12:18;;;;;;;;;;;;;;;8.39;100.00;97876.75;5024868;28;19983;-88
2023/01/08 20:14:44;;;;;;;;;;;;;;;8.39;100.00;97881.19;5025951;28;19979;-88
2023/01/08 20:17:10;;;;;;;;;;;;;;;8.39;100.00;97873.28;5030052;28;19964;-90
2023/01/08 20:19:36;;;;;;;;;;;;;;;8.38;100.00;97872.44;5029265;28;19921;-90
2023/01/08 20:22:01;;;;;;;;;;;;;;;8.38;100.00;97861.88;5020535;28;19920;-91
2023/01/08 20:24:28;;;;;;;;;;;;;;;8.35;100.00;97854.16;5023991;28;19917;-88
2023/01/08 20:26:54;;;;;;;;;;;;;;;8.30;100.00;97857.09;5015956;28;19921;-91
2023/01/08 20:29:19;;;;;;;;;;;;;;;8.24;100.00;97849.56;5015827;28;20055;-91
2023/01/08 20:31:44;;;;;;;;;;;;;;;8.14;100.00;97841.41;5030821;28;19928;-89
2023/01/08 20:34:14;;;;;;;;;;;;;;;8.05;100.00;97836.69;5026065;28;19928;-90
2023/01/08 20:36:39;;;;;;;;;;;;;;;7.93;100.00;97822.50;5018440;28;20275;-93
2023/01/08 20:39:06;;;;;;;;;;;;;;;7.82;100.00;97819.72;5027509;28;20011;-94
2023/01/08 20:41:31;;;;;;;;;;;;;;;7.67;100.00;97816.22;5018238;28;20265;-91
2023/01/08 20:43:57;;;;;;;;;;;;;;;7.61;100.00;97819.22;5037089;28;19925;-94
2023/01/08 20:46:26;;;;;;;;;;;;;;;7.56;100.00;97809.00;5048871;28;19924;-94
2023/01/08 20:48:52;;;;;;;;;;;;;;;7.48;100.00;97810.41;5044063;28;19940;-94
2023/01/08 20:51:17;;;;;;;;;;;;;;;7.52;100.00;97806.66;5044361;28;19917;-93
2023/01/08 20:53:42;;;;;;;;;;;;;;;7.37;100.00;97809.28;5045239;28;19925;-95
2023/01/08 20:56:10;;;;;;;;;;;;;;;7.21;100.00;97813.78;5024747;28;20415;-89
2023/01/08 20:58:36;;;;;;;;;;;;;;;7.10;100.00;97806.53;5043497;28;19923;-93
2023/01/08 21:01:06;;;;;;;;;;;;;;;7.14;100.00;97812.47;5053705;28;19920;-91
2023/01/08 21:03:31;;;;;;;;;;;;;;;7.35;100.00;97811.16;5047634;28;19923;-89
2023/01/08 21:05:56;;;;;;;;;;;;;;;7.57;100.00;97809.84;5020291;28;19921;-88
2023/01/08 21:08:21;;;;;;;;;;;;;;;7.76;100.00;97815.66;5034708;28;19925;-90
2023/01/08 21:10:55;;;;;;;;;;;;;;;7.88;100.00;97807.91;5046764;28;19963;-88
2023/01/08 21:13:20;;;;;;;;;;;;;;;7.98;100.00;97803.75;5041164;28;19928;-91
2023/01/08 21:15:45;;;;;;;;;;;;;;;8.04;100.00;97799.88;5050631;28;19917;-93
2023/01/08 21:18:10;;;;;;;;;;;;;;;8.12;100.00;97793.16;5036841;28;19918;-88
2023/01/08 21:20:36;;;;;;;;;;;;;;;8.16;100.00;97792.00;5039252;28;20346;-93
2023/01/08 21:23:01;;;;;;;;;;;;;;;8.21;100.00;97789.06;5040999;28;19940;-90
2023/01/08 21:25:28;;;;;;;;;;;;;;;8.26;100.00;97786.16;5042457;28;19923;-93
2023/01/08 21:27:54;;;;;;;;;;;;;;;8.26;100.00;97780.88;5060686;28;20367;-92
2023/01/08 21:30:19;;;;;;;;;;;;;;;8.31;100.00;97778.75;5059269;28;19917;-93
2023/01/08 21:32:44;;;;;;;;;;;;;;;8.34;100.00;97770.66;5059056;28;20278;-90
2023/01/08 21:35:10;;;;;;;;;;;;;;;8.33;100.00;97759.25;5058506;28;19917;-91
2023/01/08 21:37:36;;;;;;;;;;;;;;;8.37;100.00;97757.25;5057545;28;19920;-94
2023/01/08 21:40:01;;;;;;;;;;;;;;;8.39;100.00;97749.25;5058041;28;19921;-91
2023/01/08 21:45:28;;;;;;;;;;;;;;;8.05;100.00;97746.19;5039954;28;20060;-88
